Time;durP1;ratioP1;P1;durP2;ratioP2;P2;SDS_P1;SDS_P2;PMS_P1;PMS_P2;Temp;Humidity;BMP_temperature;BMP_pressure;BME280_temperature;BME280_humidity;BME280_pressure;Samples;Min_cycle;Max_cycle;Signal;HPM_P1;HPM_P2
2022/07/01 00:01:51;;;;;;;5.05;2.45;;;;;;;28.11;49.22;99195.34;4336449;32;33285;-84
2022/07/01 00:04:21;;;;;;;5.12;2.37;;;;;;;28.05;49.48;99192.25;4342085;32;34188;-84
2022/07/01 00:07:11;;;;;;;7.68;3.37;;;;;;;27.99;49.55;99192.81;4343025;32;34874;-84
2022/07/01 00:09:40;;;;;;;4.47;2.72;;;;;;;28.02;49.78;99191.69;4339146;32;34538;-84
2022/07/01 00:12:09;;;;;;;4.35;2.50;;;;;;;27.99;49.71;99197.31;4337308;32;33385;-84
2022/07/01 00:14:38;;;;;;;5.55;3.00;;;;;;;27.93;49.81;99195.22;4340786;33;34004;-84
2022/07/01 00:17:09;;;;;;;5.97;2.60;;;;;;;27.81;49.95;99198.03;4337885;33;33961;-83
2022/07/01 00:19:39;;;;;;;4.60;2.15;;;;;;;27.86;49.92;99195.81;4329969;33;34076;-84
2022/07/01 00:22:09;;;;;;;;;;;;;;;27.83;49.71;99187.22;4340808;33;33421;-84
2022/07/01 00:24:38;;;;;;;4.05;2.15;;;;;;;27.89;49.52;99183.19;4342519;33;34208;-84
2022/07/01 00:27:07;;;;;;;5.50;2.50;;;;;;;27.80;49.73;99190.16;4341340;32;34087;-84
2022/07/01 00:29:36;;;;;;;4.80;2.15;;;;;;;27.87;49.34;99191.31;4334544;33;33584;-84
2022/07/01 00:32:05;;;;;;;5.18;2.67;;;;;;;27.91;49.29;99187.38;4334344;33;33309;-84
2022/07/01 00:34:34;;;;;;;6.62;2.15;;;;;;;27.84;49.27;99188.94;4339605;33;33816;-84
2022/07/01 00:37:05;;;;;;;6.45;2.37;;;;;;;27.77;49.40;99183.28;4333604;32;33780;-85
2022/07/01 00:39:35;;;;;;;5.10;2.90;;;;;;;27.70;49.74;99187.50;4333751;33;33639;-84
2022/07/01 00:42:05;;;;;;;3.83;2.42;;;;;;;27.55;50.29;99191.59;4342683;33;32958;-84
2022/07/01 00:44:34;;;;;;;5.97;2.53;;;;;;;27.66;49.60;99186.94;4344781;33;33838;-85
2022/07/01 00:47:04;;;;;;;5.10;2.53;;;;;;;27.56;49.43;99191.44;4342467;33;33652;-83
2022/07/01 00:49:33;;;;;;;6.18;2.67;;;;;;;27.44;50.08;99188.06;4342235;33;34652;-83
2022/07/01 00:52:03;;;;;;;4.57;2.50;;;;;;;27.44;50.10;99185.41;4342199;33;33437;-84
2022/07/01 00:54:35;;;;;;;7.90;2.40;;;;;;;27.39;50.13;99185.00;4339397;33;33843;-84
2022/07/01 00:57:08;;;;;;;5.65;2.42;;;;;;;27.33;50.18;99188.22;4337163;33;34065;-84
2022/07/01 00:59:40;;;;;;;5.82;3.22;;;;;;;27.32;50.20;99185.69;4345822;33;33612;-84
2022/07/01 01:02:10;;;;;;;;;;;;;;;27.51;49.61;99183.03;4327598;33;33450;-85
2022/07/01 01:04:38;;;;;;;3.67;2.10;;;;;;;27.39;49.77;99178.81;4327027;33;34049;-84
2022/07/01 01:07:08;;;;;;;5.95;2.65;;;;;;;27.36;49.98;99187.09;4330971;33;34869;-84
2022/07/01 01:09:38;;;;;;;3.83;2.00;;;;;;;27.23;49.97;99185.56;4342229;33;33099;-84
2022/07/01 01:12:11;;;;;;;3.65;2.03;;;;;;;27.32;49.97;99189.19;4347030;33;33010;-85
2022/07/01 01:14:46;;;;;;;5.55;3.12;;;;;;;27.37;49.70;99186.13;4339897;32;33322;-84
2022/07/01 01:17:16;;;;;;;6.25;2.30;;;;;;;27.26;50.04;99188.94;4336574;32;33912;-84
2022/07/01 01:19:46;;;;;;;4.07;2.05;;;;;;;27.23;49.98;99196.22;4340729;32;33628;-85
2022/07/01 01:22:19;;;;;;;3.85;2.35;;;;;;;27.10;50.54;99200.91;4338981;32;33505;-85
2022/07/01 01:24:54;;;;;;;5.68;3.20;;;;;;;27.16;50.10;99188.84;4341911;32;33623;-83
2022/07/01 01:27:22;;;;;;;6.95;2.53;;;;;;;27.07;50.56;99187.88;4344876;32;34358;-84
2022/07/01 01:29:51;;;;;;;3.97;2.15;;;;;;;27.06;50.68;99185.34;4330367;33;33599;-84
2022/07/01 01:32:20;;;;;;;5.80;2.22;;;;;;;27.10;50.67;99189.44;4338758;32;33472;-84
2022/07/01 01:34:49;;;;;;;5.15;2.83;;;;;;;27.21;50.48;99200.00;4340919;32;33725;-83
2022/07/01 01:37:19;;;;;;;4.00;2.20;;;;;;;27.18;50.50;99195.75;4333600;32;33804;-84
2022/07/01 01:39:48;;;;;;;4.00;2.37;;;;;;;26.92;51.11;99199.91;4346415;32;37009;-84
2022/07/01 01:42:17;;;;;;;4.30;2.25;;;;;;;26.87;51.54;99194.13;4341882;32;33595;-84
2022/07/01 01:44:46;;;;;;;6.82;2.83;;;;;;;27.05;51.06;99192.50;4341779;32;34524;-84
2022/07/01 01:47:14;;;;;;;5.53;2.87;;;;;;;27.08;50.96;99192.22;4338824;32;34732;-84
2022/07/01 01:49:43;;;;;;;3.78;2.33;;;;;;;27.00;51.18;99194.75;4335558;32;34340;-84
2022/07/01 01:52:12;;;;;;;3.45;2.35;;;;;;;26.75;51.90;99186.28;4342022;32;32947;-84
2022/07/01 01:54:42;;;;;;;5.62;3.17;;;;;;;26.84;52.12;99183.78;4342459;32;33724;-84
2022/07/01 01:57:11;;;;;;;6.43;2.80;;;;;;;26.85;52.36;99180.16;4341400;32;33830;-85
2022/07/01 01:59:40;;;;;;;3.70;2.42;;;;;;;26.81;52.65;99180.41;4342631;32;33898;-83
2022/07/01 02:02:09;;;;;;;4.60;2.70;;;;;;;26.90;52.67;99185.91;4340305;32;32829;-84
2022/07/01 02:04:38;;;;;;;5.45;3.22;;;;;;;26.91;52.63;99180.41;4345726;32;33930;-84
2022/07/01 02:07:07;;;;;;;7.85;3.12;;;;;;;26.89;52.25;99177.03;4343247;32;33787;-84
2022/07/01 02:09:36;;;;;;;5.10;2.40;;;;;;;26.71;52.54;99174.22;4339511;32;33919;-84
2022/07/01 02:12:07;;;;;;;5.50;2.50;;;;;;;26.72;52.49;99173.22;4334616;32;33488;-83
2022/07/01 02:14:36;;;;;;;3.97;1.75;;;;;;;26.76;52.29;99177.31;4340854;32;33040;-84
2022/07/01 02:17:05;;;;;;;9.38;2.80;;;;;;;26.84;52.14;99178.44;4337399;33;33381;-84
2022/07/01 02:19:34;;;;;;;4.78;2.40;;;;;;;26.76;52.37;99176.47;4344684;32;33971;-83
2022/07/01 02:22:03;;;;;;;6.07;2.65;;;;;;;26.77;52.07;99176.34;4341995;32;34002;-84
2022/07/01 02:24:32;;;;;;;4.47;2.55;;;;;;;26.69;52.39;99168.19;4338061;32;33491;-83
2022/07/01 02:27:00;;;;;;;4.82;2.35;;;;;;;26.72;52.26;99175.88;4339944;32;33903;-84
2022/07/01 02:29:30;;;;;;;4.37;2.45;;;;;;;26.55;52.68;99181.84;4340924;32;34461;-83
2022/07/01 02:31:59;;;;;;;7.70;2.53;;;;;;;26.73;51.85;99182.91;4335577;32;33544;-83
2022/07/01 02:34:28;;;;;;;4.62;2.42;;;;;;;26.53;52.74;99182.00;4332106;32;33529;-83
2022/07/01 02:37:00;;;;;;;4.62;2.28;;;;;;;26.51;52.65;99185.75;4340123;32;33554;-84
2022/07/01 02:39:29;;;;;;;4.47;2.45;;;;;;;26.36;53.14;99190.56;4337814;32;34359;-84
2022/07/01 02:44:46;;;;;;;3.70;1.85;;;;;;;26.36;53.13;99196.75;4338694;32;33771;-84
2022/07/01 02:47:14;;;;;;;4.43;2.45;;;;;;;26.28;53.33;99191.22;4344811;32;34645;-83
2022/07/01 02:49:43;;;;;;;6.72;2.20;;;;;;;26.28;53.37;99195.72;4336870;32;34452;-85
2022/07/01 02:52:12;;;;;;;5.80;3.03;;;;;;;26.24;53.54;99196.94;4341064;32;33400;-83
2022/07/01 02:54:41;;;;;;;5.97;2.72;;;;;;;26.33;53.30;99190.84;4340294;32;34048;-84
2022/07/01 02:57:10;;;;;;;3.65;2.22;;;;;;;26.40;53.06;99203.47;4342314;32;34691;-83
2022/07/01 02:59:39;;;;;;;5.57;2.67;;;;;;;26.38;53.11;99204.56;4344370;32;34218;-83
2022/07/01 03:02:09;;;;;;;4.65;2.37;;;;;;;26.34;53.41;99203.19;4339570;32;33104;-85
2022/07/01 03:04:37;;;;;;;5.05;2.50;;;;;;;26.37;53.37;99200.25;4340768;32;33577;-83
2022/07/01 03:07:07;;;;;;;4.78;2.92;;;;;;;26.22;53.62;99198.91;4341192;32;33765;-84
2022/07/01 03:09:36;;;;;;;6.03;2.45;;;;;;;26.30;53.58;99194.59;4341769;32;34328;-84
2022/07/01 03:12:24;;;;;;;5.25;2.30;;;;;;;26.09;54.32;99205.25;4345506;32;33227;-83
2022/07/01 03:14:54;;;;;;;5.30;2.50;;;;;;;26.22;53.95;99210.41;4345936;32;32598;-84
2022/07/01 03:17:24;;;;;;;5.28;2.87;;;;;;;26.37;53.43;99208.22;4338380;32;33398;-83
2022/07/01 03:19:53;;;;;;;4.78;2.15;;;;;;;26.24;54.16;99207.59;4332822;33;34317;-84
2022/07/01 03:22:24;;;;;;;6.07;2.78;;;;;;;26.31;53.80;99206.09;4336108;32;34290;-83
2022/07/01 03:24:53;;;;;;;5.15;3.17;;;;;;;26.25;54.12;99220.75;4338747;32;32787;-84
2022/07/01 03:27:23;;;;;;;6.03;2.90;;;;;;;26.15;54.25;99220.72;4340688;32;34735;-84
2022/07/01 03:29:52;;;;;;;4.78;2.72;;;;;;;26.30;54.07;99228.34;4335641;32;33429;-84
2022/07/01 03:32:21;;;;;;;3.42;1.90;;;;;;;26.47;53.32;99229.53;4331912;32;33499;-84
2022/07/01 03:34:52;;;;;;;7.75;2.80;;;;;;;26.42;53.86;99232.59;4340333;32;33594;-85
2022/07/01 03:37:22;;;;;;;5.40;2.50;;;;;;;26.49;53.61;99243.56;4341135;32;34390;-83
2022/07/01 03:39:53;;;;;;;4.73;2.30;;;;;;;26.40;53.74;99246.03;4336333;32;35261;-85
2022/07/01 03:42:22;;;;;;;7.68;2.70;;;;;;;26.57;53.42;99244.59;4343949;32;33650;-84
2022/07/01 03:44:51;;;;;;;4.43;2.90;;;;;;;26.64;53.16;99254.72;4342903;33;34461;-84
2022/07/01 03:47:19;;;;;;;3.80;2.20;;;;;;;26.59;53.43;99252.44;4331372;32;33967;-83
2022/07/01 03:49:48;;;;;;;4.93;2.28;;;;;;;26.58;53.54;99259.59;4342288;33;33896;-85
2022/07/01 03:52:18;;;;;;;2.90;1.73;;;;;;;26.66;53.66;99268.75;4340740;32;33412;-83
2022/07/01 03:54:46;;;;;;;3.75;2.30;;;;;;;26.76;53.58;99267.78;4339781;33;35585;-84
2022/07/01 03:57:15;;;;;;;6.40;2.10;;;;;;;26.79;53.36;99272.00;4339534;32;34774;-84
2022/07/01 03:59:44;;;;;;;5.30;2.55;;;;;;;26.84;53.54;99279.59;4342278;32;34555;-84
2022/07/01 04:02:13;;;;;;;9.38;3.12;;;;;;;26.94;53.22;99277.78;4341788;32;33418;-84
2022/07/01 04:04:42;;;;;;;4.35;2.15;;;;;;;26.99;53.45;99275.56;4338619;32;33979;-84
2022/07/01 04:07:12;;;;;;;4.22;2.65;;;;;;;27.11;52.96;99270.97;4345412;32;34098;-83
2022/07/01 04:09:42;;;;;;;6.20;2.80;;;;;;;27.19;52.45;99274.69;4341644;32;34634;-84
2022/07/01 04:12:12;;;;;;;5.10;2.53;;;;;;;27.21;52.57;99269.25;4339767;32;33816;-85
2022/07/01 04:14:41;;;;;;;4.95;2.70;;;;;;;27.41;52.26;99275.44;4341488;32;33618;-84
2022/07/01 04:17:10;;;;;;;5.07;2.70;;;;;;;27.34;52.58;99274.28;4339430;32;33757;-84
2022/07/01 04:19:39;;;;;;;5.07;2.35;;;;;;;27.09;53.23;99278.28;4341305;32;33800;-85
2022/07/01 04:24:55;;;;;;;8.38;2.25;;;;;;;27.16;52.92;99272.28;4341744;32;34575;-84
2022/07/01 04:27:24;;;;;;;4.87;2.53;;;;;;;27.54;51.88;99269.84;4330493;32;33985;-84
2022/07/01 04:29:53;;;;;;;4.00;2.10;;;;;;;27.59;52.31;99276.44;4341650;32;34421;-84
2022/07/01 04:32:22;;;;;;;5.47;2.47;;;;;;;27.77;52.87;99273.09;4340614;32;34340;-84
2022/07/01 04:34:51;;;;;;;4.87;2.65;;;;;;;27.93;52.46;99272.53;4345943;32;32997;-83
2022/07/01 04:37:20;;;;;;;4.35;2.25;;;;;;;28.03;52.09;99257.38;4340429;32;33311;-83
2022/07/01 04:39:49;;;;;;;6.37;2.30;;;;;;;28.19;51.95;99268.28;4340564;32;33548;-84
2022/07/01 04:42:20;;;;;;;6.28;2.80;;;;;;;28.24;52.14;99260.69;4340189;32;33673;-83
2022/07/01 04:44:49;;;;;;;6.40;2.15;;;;;;;28.35;52.16;99259.69;4342145;33;32784;-84
2022/07/01 04:47:20;;;;;;;5.47;2.83;;;;;;;28.88;51.06;99258.28;4341104;32;34577;-84
2022/07/01 04:49:49;;;;;;;5.53;3.10;;;;;;;29.60;48.45;99261.94;4346068;32;34431;-84
2022/07/01 04:52:18;;;;;;;5.35;2.58;;;;;;;30.54;46.28;99258.69;4340632;32;33426;-84
2022/07/01 04:54:47;;;;;;;4.50;2.30;;;;;;;31.20;44.89;99256.28;4340096;32;34507;-85
2022/07/01 04:57:16;;;;;;;6.68;2.17;;;;;;;31.54;43.04;99252.69;4328030;32;34910;-85
2022/07/01 04:59:46;;;;;;;3.97;2.20;;;;;;;31.86;42.46;99254.56;4340126;32;33799;-84
2022/07/01 05:02:15;;;;;;;4.55;2.45;;;;;;;32.77;40.66;99257.97;4345173;32;35480;-84
2022/07/01 05:04:44;;;;;;;5.57;2.17;;;;;;;33.25;39.93;99253.37;4340216;32;33873;-85
2022/07/01 05:07:27;;;;;;;4.55;2.15;;;;;;;33.59;39.77;99255.75;4338860;32;33791;-86
2022/07/01 05:09:58;;;;;;;4.53;1.85;;;;;;;33.75;39.04;99268.22;4341092;32;34503;-84
2022/07/01 05:12:28;;;;;;;3.20;2.00;;;;;;;34.15;37.33;99269.75;4340922;32;33205;-85
2022/07/01 05:14:58;;;;;;;4.18;2.58;;;;;;;34.08;38.29;99270.63;4338400;32;34206;-84
2022/07/01 05:21:55;;;;;;;6.37;2.92;;;;;;;34.16;37.92;99275.97;4336644;33;33749;-85
2022/07/01 05:23:03;;;;;;;4.95;2.53;;;;;;;34.34;37.20;99283.72;4336474;32;34030;-86
2022/07/01 05:25:32;;;;;;;6.47;1.80;;;;;;;34.24;37.39;99285.81;4338581;32;33503;-85
2022/07/01 05:28:01;;;;;;;5.40;2.10;;;;;;;34.25;37.47;99280.25;4331472;32;34061;-85
2022/07/01 05:30:31;;;;;;;5.20;1.90;;;;;;;34.35;37.94;99288.06;4339601;32;33758;-85
2022/07/01 05:33:00;;;;;;;4.03;2.08;;;;;;;34.40;37.92;99283.78;4342517;32;33027;-84
2022/07/01 05:35:28;;;;;;;5.68;2.85;;;;;;;34.35;38.28;99290.75;4340375;32;34531;-85
2022/07/01 05:37:58;;;;;;;4.95;1.85;;;;;;;34.37;38.17;99284.19;4340735;32;33751;-85
2022/07/01 05:40:27;;;;;;;3.83;2.05;;;;;;;34.49;38.26;99286.44;4338388;32;33186;-86
2022/07/01 05:42:56;;;;;;;4.12;2.10;;;;;;;34.59;38.16;99281.59;4330820;32;34237;-85
2022/07/01 05:45:25;;;;;;;5.07;2.25;;;;;;;34.59;38.00;99289.69;4341319;32;33590;-84
2022/07/01 05:47:57;;;;;;;4.18;2.22;;;;;;;34.70;37.92;99297.34;4337425;33;34134;-85
2022/07/01 05:50:26;;;;;;;3.75;1.98;;;;;;;34.91;37.88;99295.72;4333204;32;36202;-85
2022/07/01 05:52:55;;;;;;;5.53;2.83;;;;;;;34.98;37.96;99302.88;4333530;32;33661;-85
2022/07/01 05:55:24;;;;;;;4.25;2.00;;;;;;;35.04;37.34;99302.13;4333939;33;33674;-86
2022/07/01 05:57:52;;;;;;;4.57;2.35;;;;;;;35.04;37.38;99312.09;4333075;32;34765;-85
2022/07/01 06:00:21;;;;;;;6.75;2.45;;;;;;;34.95;37.36;99313.22;4339458;32;33736;-87
2022/07/01 06:02:52;;;;;;;4.93;2.70;;;;;;;34.74;37.97;99317.47;4331608;32;33316;-87
2022/07/01 06:05:24;;;;;;;6.00;2.30;;;;;;;34.47;38.58;99316.22;4338944;32;33149;-86
2022/07/01 06:07:56;;;;;;;;;;;;;;;34.08;39.37;99319.09;4336326;32;34943;-86
2022/07/01 06:10:28;;;;;;;6.03;2.45;;;;;;;33.82;40.20;99320.28;4332509;32;34210;-85
2022/07/01 06:12:57;;;;;;;4.97;2.40;;;;;;;33.38;40.86;99323.56;4342012;32;32462;-85
2022/07/01 06:15:26;;;;;;;4.55;2.20;;;;;;;33.38;40.85;99320.88;4333859;32;34616;-85
2022/07/01 06:17:56;;;;;;;5.00;2.42;;;;;;;33.12;40.90;99326.53;4336932;32;34747;-86
2022/07/01 06:20:27;;;;;;;7.20;2.92;;;;;;;32.85;41.60;99334.00;4339896;32;34079;-86
2022/07/01 06:22:57;;;;;;;;;;;;;;;32.65;42.72;99330.87;4336129;32;32411;-88
2022/07/01 06:25:26;;;;;;;4.07;2.25;;;;;;;32.77;42.36;99338.56;4344943;32;32910;-86
2022/07/01 06:27:54;;;;;;;6.20;2.80;;;;;;;32.56;42.27;99336.44;4339138;32;33949;-86
2022/07/01 06:30:23;;;;;;;6.35;2.85;;;;;;;32.52;42.84;99335.91;4336961;32;33761;-87
2022/07/01 06:32:52;;;;;;;6.68;2.78;;;;;;;32.70;42.49;99330.34;4332299;32;33453;-85
2022/07/01 06:35:21;;;;;;;8.07;3.47;;;;;;;32.46;42.85;99334.72;4328789;32;33797;-86
2022/07/01 06:37:51;;;;;;;8.32;3.47;;;;;;;32.24;43.30;99336.25;4342352;32;34640;-86
2022/07/01 06:40:26;;;;;;;5.72;2.72;;;;;;;32.39;43.10;99335.56;4339156;32;33893;-86
2022/07/01 06:42:55;;;;;;;6.72;2.92;;;;;;;32.51;43.11;99334.25;4330810;32;34417;-85
2022/07/01 06:45:24;;;;;;;6.55;3.20;;;;;;;32.55;43.16;99330.22;4333107;32;33681;-86
2022/07/01 06:47:54;;;;;;;5.28;2.83;;;;;;;32.63;43.22;99326.69;4339553;33;32518;-87
2022/07/01 06:50:23;;;;;;;6.80;2.58;;;;;;;32.34;43.15;99333.41;4345229;32;33554;-86
2022/07/01 06:52:53;;;;;;;4.30;2.42;;;;;;;32.44;42.70;99330.53;4337383;32;33142;-86
2022/07/01 06:55:22;;;;;;;5.93;2.58;;;;;;;32.73;42.53;99330.84;4330626;32;35628;-87
2022/07/01 06:57:53;;;;;;;4.85;1.98;;;;;;;32.65;42.99;99330.87;4335199;32;33624;-85
2022/07/01 07:00:26;;;;;;;6.97;2.55;;;;;;;32.63;42.30;99330.19;4336304;32;33238;-86
2022/07/01 07:02:55;;;;;;;12.37;3.58;;;;;;;32.79;42.86;99325.78;4345180;32;33698;-86
2022/07/01 07:05:24;;;;;;;5.40;1.83;;;;;;;32.83;42.68;99327.12;4338277;32;33895;-87
2022/07/01 07:07:54;;;;;;;5.35;2.35;;;;;;;33.06;42.68;99332.63;4337545;32;35257;-85
2022/07/01 07:10:30;;;;;;;5.18;2.72;;;;;;;32.99;41.85;99329.75;4341199;32;33100;-85
2022/07/01 07:12:59;;;;;;;3.22;1.83;;;;;;;33.07;40.90;99327.06;4338782;32;34478;-87
2022/07/01 07:15:30;;;;;;;4.68;2.72;;;;;;;33.14;40.51;99324.53;4343952;32;33647;-85
2022/07/01 07:18:01;;;;;;;4.85;1.80;;;;;;;33.38;40.66;99326.25;4338452;32;34755;-85
2022/07/01 07:20:30;;;;;;;4.78;1.80;;;;;;;33.21;40.34;99319.28;4338200;32;33888;-86
2022/07/01 07:23:00;;;;;;;4.93;2.00;;;;;;;33.39;38.63;99322.53;4339063;32;33931;-83
2022/07/01 07:25:29;;;;;;;7.05;2.90;;;;;;;33.43;39.99;99323.88;4334189;32;32932;-83
2022/07/01 07:28:01;;;;;;;3.85;1.45;;;;;;;33.46;39.30;99315.44;4341823;32;34382;-85
2022/07/01 07:30:30;;;;;;;7.28;2.62;;;;;;;33.62;38.64;99314.53;4347592;32;33473;-84
2022/07/01 07:32:59;;;;;;;4.70;2.20;;;;;;;33.61;39.72;99320.97;4336880;32;33636;-83
2022/07/01 07:35:29;;;;;;;4.12;1.70;;;;;;;33.66;38.79;99312.31;4330826;32;33171;-83
2022/07/01 07:38:03;;;;;;;3.65;1.48;;;;;;;33.90;37.29;99309.47;4335475;32;33923;-85
2022/07/01 07:40:37;;;;;;;3.72;1.77;;;;;;;34.07;37.15;99315.56;4340697;32;34419;-85
2022/07/01 07:43:07;;;;;;;4.28;1.87;;;;;;;34.06;37.20;99310.34;4341791;32;33415;-86
2022/07/01 07:45:36;;;;;;;5.63;1.77;;;;;;;34.09;37.42;99310.00;4336011;32;34367;-85
2022/07/01 07:48:10;;;;;;;7.37;1.98;;;;;;;34.13;35.35;99322.09;4336179;32;33891;-85
2022/07/01 07:50:41;;;;;;;6.18;1.85;;;;;;;33.98;36.53;99320.16;4330984;32;34570;-86
2022/07/01 07:53:14;;;;;;;4.68;1.92;;;;;;;34.28;36.22;99311.38;4329912;32;32786;-85
2022/07/01 07:55:46;;;;;;;5.75;1.50;;;;;;;34.36;35.22;99313.97;4335129;32;32846;-86
2022/07/01 07:58:15;;;;;;;4.65;2.12;;;;;;;34.28;35.50;99317.59;4341206;32;34698;-86
2022/07/01 08:00:43;;;;;;;5.70;2.10;;;;;;;34.30;35.72;99323.63;4335508;32;33547;-87
2022/07/01 08:03:15;;;;;;;4.12;1.83;;;;;;;34.41;36.10;99323.19;4337732;32;33439;-86
2022/07/01 08:05:44;;;;;;;4.70;2.63;;;;;;;34.48;36.29;99334.06;4334999;32;33878;-87
2022/07/01 08:08:14;;;;;;;3.05;1.42;;;;;;;34.74;34.34;99325.56;4335838;32;33534;-86
2022/07/01 08:10:57;;;;;;;1.77;1.00;;;;;;;34.70;35.75;99323.41;4341343;32;34510;-86
2022/07/01 08:13:27;;;;;;;3.30;1.80;;;;;;;34.92;34.73;99327.91;4342758;32;33294;-86
2022/07/01 08:15:56;;;;;;;4.60;1.83;;;;;;;35.04;35.36;99334.50;4336595;32;33573;-86
2022/07/01 08:18:25;;;;;;;3.08;1.75;;;;;;;35.07;34.94;99327.88;4336154;33;33712;-86
2022/07/01 08:20:54;;;;;;;6.20;1.95;;;;;;;35.21;35.10;99332.47;4336900;33;34388;-86
2022/07/01 08:23:24;;;;;;;5.40;2.05;;;;;;;35.15;35.10;99333.19;4340016;33;33222;-87
2022/07/01 08:25:53;;;;;;;7.45;2.72;;;;;;;35.28;34.52;99331.69;4339142;33;33918;-86
2022/07/01 08:28:22;;;;;;;6.62;2.35;;;;;;;35.24;34.81;99333.94;4335334;33;34454;-86
2022/07/01 08:30:51;;;;;;;3.65;1.45;;;;;;;35.19;34.61;99329.09;4330922;32;33791;-87
2022/07/01 08:33:19;;;;;;;4.95;1.83;;;;;;;35.38;34.93;99337.63;4339765;33;33278;-86
2022/07/01 08:35:48;;;;;;;3.67;1.67;;;;;;;35.10;35.00;99326.69;4341464;32;33545;-87
2022/07/01 08:38:17;;;;;;;4.30;1.60;;;;;;;34.95;34.62;99326.69;4344787;33;34067;-86
2022/07/01 08:40:52;;;;;;;3.83;1.50;;;;;;;35.34;34.60;99337.16;4341415;33;33843;-87
2022/07/01 08:43:22;;;;;;;3.37;1.83;;;;;;;35.34;33.82;99336.34;4337437;33;33817;-86
2022/07/01 08:45:54;;;;;;;4.03;1.75;;;;;;;35.76;34.13;99334.75;4338829;33;33855;-86
2022/07/01 08:48:23;;;;;;;2.30;1.10;;;;;;;35.81;33.01;99333.16;4331812;33;33675;-87
2022/07/01 08:50:52;;;;;;;4.60;1.62;;;;;;;35.92;32.73;99333.69;4342032;32;33705;-87
2022/07/01 08:53:21;;;;;;;2.83;1.25;;;;;;;35.92;31.92;99329.09;4339918;33;34122;-86
2022/07/01 08:58:37;;;;;;;3.70;1.35;;;;;;;36.12;31.20;99329.31;4335667;33;33769;-86
2022/07/01 09:01:12;;;;;;;;;;;;;;;36.29;31.09;99329.84;4331841;33;33272;-86
2022/07/01 09:03:41;;;;;;;3.30;1.05;;;;;;;36.26;31.07;99328.38;4340894;32;33491;-86
2022/07/01 09:06:15;;;;;;;4.20;1.93;;;;;;;36.40;29.24;99321.22;4340865;32;34101;-86
2022/07/01 09:08:44;;;;;;;3.83;1.92;;;;;;;36.41;29.77;99320.19;4327283;33;33755;-86
2022/07/01 09:11:15;;;;;;;3.50;1.15;;;;;;;36.35;30.20;99320.16;4336803;33;33899;-87
2022/07/01 09:13:45;;;;;;;;;;;;;;;36.47;30.11;99319.41;4337940;33;34680;-86
2022/07/01 09:16:15;;;;;;;2.58;1.10;;;;;;;36.48;30.65;99317.53;4330241;33;33616;-87
2022/07/01 09:19:02;;;;;;;4.25;1.52;;;;;;;36.30;28.97;99315.34;4342922;33;34058;-86
2022/07/01 09:21:32;;;;;;;1.80;1.02;;;;;;;36.31;29.24;99314.31;4345839;33;33610;-87
2022/07/01 09:24:04;;;;;;;3.20;1.73;;;;;;;36.44;28.84;99325.22;4339734;33;33038;-86
2022/07/01 09:26:33;;;;;;;3.35;1.50;;;;;;;36.55;29.90;99315.72;4337639;33;33971;-87
2022/07/01 09:29:03;;;;;;;2.53;1.37;;;;;;;36.60;28.87;99320.56;4335141;33;33907;-87
2022/07/01 09:31:33;;;;;;;;;;;;;;;36.63;28.79;99317.47;4332653;33;33003;-86
2022/07/01 09:34:06;;;;;;;4.55;1.52;;;;;;;36.69;29.25;99313.97;4338071;33;33150;-86
2022/07/01 09:36:40;;;;;;;2.95;1.50;;;;;;;36.57;29.78;99315.53;4340830;33;33417;-87
2022/07/01 09:39:08;;;;;;;4.15;1.95;;;;;;;36.77;30.79;99305.69;4337298;33;33923;-86
2022/07/01 09:42:00;;;;;;;4.60;1.80;;;;;;;36.92;29.14;99303.72;4333606;33;33670;-86
2022/07/01 09:44:30;;;;;;;5.37;1.35;;;;;;;37.01;29.17;99315.19;4337320;33;33581;-86
2022/07/01 09:47:05;;;;;;;4.03;1.62;;;;;;;36.99;29.59;99311.00;4335041;32;33260;-86
2022/07/01 09:49:34;;;;;;;2.58;1.00;;;;;;;37.21;28.27;99306.34;4338611;32;33701;-86
2022/07/01 09:52:03;;;;;;;6.03;1.50;;;;;;;37.44;28.70;99306.00;4342072;33;34480;-87
2022/07/01 09:54:31;;;;;;;3.60;1.33;;;;;;;37.54;28.92;99309.19;4340644;32;33323;-86
2022/07/01 09:57:03;;;;;;;3.97;1.05;;;;;;;37.30;27.66;99314.06;4340862;33;33453;-86
2022/07/01 09:59:33;;;;;;;3.58;1.58;;;;;;;37.51;27.32;99307.69;4330909;33;34007;-87
2022/07/01 10:02:03;;;;;;;2.92;1.12;;;;;;;37.67;26.88;99302.97;4334491;33;33138;-86
2022/07/01 10:04:33;;;;;;;2.92;1.40;;;;;;;37.87;28.09;99308.41;4344883;33;33728;-86
2022/07/01 10:07:18;;;;;;;5.90;1.70;;;;;;;37.92;27.42;99306.75;4342380;33;33862;-86
2022/07/01 10:10:22;;;;;;;4.18;1.42;;;;;;;37.87;27.40;99301.13;4340796;33;33993;-88
2022/07/01 10:21:05;;;;;;;2.35;1.48;;;;;;;38.27;25.50;99284.87;4235507;33;35351;-88
2022/07/01 11:18:12;;;;;;;3.90;1.55;;;;;;;38.59;24.75;99280.50;4231845;33;20114;-91
2022/07/01 11:20:41;;;;;;;2.35;1.00;;;;;;;38.55;24.96;99281.12;4235511;33;34240;-91
2022/07/01 11:23:10;;;;;;;2.58;1.55;;;;;;;38.54;25.48;99277.59;4257900;33;33211;-91
2022/07/01 11:25:38;;;;;;;3.75;1.10;;;;;;;38.53;25.07;99259.66;4262597;33;33375;-91
2022/07/01 11:28:07;;;;;;;3.45;1.25;;;;;;;38.89;25.13;99266.41;4271375;33;33984;-90
2022/07/01 11:30:36;;;;;;;2.78;1.27;;;;;;;38.91;24.25;99260.81;4269640;33;33981;-92
2022/07/01 11:33:05;;;;;;;3.65;1.27;;;;;;;39.14;23.81;99265.72;4266287;33;33275;-91
2022/07/01 11:41:11;;;;;;;4.85;1.50;;;;;;;39.14;23.60;99238.59;4304111;32;33351;-91
2022/07/01 11:43:40;;;;;;;3.20;1.30;;;;;;;39.43;23.38;99243.44;4347630;32;32874;-91
2022/07/01 11:46:09;;;;;;;;;;;;;;;39.68;22.84;99234.50;4352579;32;34804;-92
2022/07/01 11:48:40;;;;;;;3.85;1.42;;;;;;;39.73;23.37;99242.81;4347842;32;34965;-90
2022/07/01 11:51:13;;;;;;;3.42;1.30;;;;;;;39.71;23.90;99231.34;4349302;32;33746;-91
2022/07/01 11:53:43;;;;;;;2.53;1.15;;;;;;;40.05;21.58;99227.31;4345961;32;33456;-91
2022/07/01 11:56:13;;;;;;;3.12;1.17;;;;;;;39.93;22.08;99225.56;4355506;32;34719;-91
2022/07/01 11:58:46;;;;;;;3.03;1.73;;;;;;;39.94;22.85;99219.06;4343575;32;33800;-89
2022/07/01 12:01:23;;;;;;;2.87;1.08;;;;;;;40.42;21.67;99223.84;4353374;32;34363;-88
2022/07/01 12:03:55;;;;;;;2.62;1.60;;;;;;;40.43;21.42;99220.06;4344769;32;34308;-88
2022/07/01 12:06:26;;;;;;;3.17;1.35;;;;;;;40.50;21.46;99221.66;4348617;32;34586;-90
2022/07/01 12:08:56;;;;;;;4.57;1.10;;;;;;;40.24;21.11;99211.06;4346675;32;34265;-88
2022/07/01 12:11:27;;;;;;;5.32;0.80;;;;;;;40.69;21.09;99206.19;4355364;32;34480;-89
2022/07/01 12:13:57;;;;;;;4.68;1.30;;;;;;;40.98;20.96;99216.47;4369500;32;33468;-90
2022/07/01 12:16:26;;;;;;;3.05;1.17;;;;;;;40.81;19.92;99199.97;4358423;32;33654;-90
2022/07/01 12:18:57;;;;;;;2.95;1.60;;;;;;;40.89;19.47;99200.50;4365972;32;34082;-90
2022/07/01 12:21:28;;;;;;;3.90;1.45;;;;;;;40.98;20.60;99200.97;4364043;32;33752;-90
2022/07/01 12:24:06;;;;;;;4.43;2.28;;;;;;;41.28;19.65;99205.63;4354863;32;36849;-91
2022/07/01 12:26:35;;;;;;;2.15;1.00;;;;;;;41.36;19.75;99206.09;4354497;32;34624;-91
2022/07/01 12:29:05;;;;;;;2.47;1.40;;;;;;;41.64;19.58;99193.78;4358376;32;34169;-91
2022/07/01 12:31:34;;;;;;;1.90;1.00;;;;;;;41.86;19.54;99195.91;4369080;32;35037;-90
2022/07/01 12:34:03;;;;;;;;;;;;;;;41.93;18.69;99185.72;4371452;32;32971;-90
2022/07/01 12:36:33;;;;;;;2.80;1.48;;;;;;;41.90;18.56;99192.50;4371486;32;33822;-90
2022/07/01 12:39:04;;;;;;;2.75;1.12;;;;;;;41.82;18.99;99192.81;4372060;32;33552;-90
2022/07/01 12:41:40;;;;;;;5.10;1.42;;;;;;;41.96;18.40;99188.84;4371107;32;169033;-90
2022/07/01 12:44:21;;;;;;;4.65;1.10;;;;;;;41.92;18.50;99176.72;4370890;32;33761;-91
2022/07/01 12:46:50;;;;;;;2.05;1.02;;;;;;;42.05;18.58;99189.31;4359894;32;34266;-90
2022/07/01 12:49:20;;;;;;;3.23;1.10;;;;;;;42.27;19.12;99169.63;4364319;32;33580;-91
2022/07/01 12:51:51;;;;;;;2.95;1.42;;;;;;;42.45;16.95;99166.75;4364114;32;34081;-94
2022/07/01 12:54:31;;;;;;;3.05;1.15;;;;;;;42.52;17.09;99169.34;4363529;32;34286;-92
2022/07/01 12:57:01;;;;;;;2.78;0.93;;;;;;;42.51;17.80;99173.16;4344365;32;33209;-90
2022/07/01 12:59:32;;;;;;;2.35;1.08;;;;;;;42.78;17.59;99167.94;4355050;32;34183;-91
2022/07/01 13:02:02;;;;;;;3.33;1.33;;;;;;;42.82;17.16;99160.97;4352442;32;34079;-92
2022/07/01 13:04:32;;;;;;;2.92;1.35;;;;;;;42.90;17.03;99157.84;4367570;32;32792;-90
2022/07/01 13:07:02;;;;;;;4.97;1.10;;;;;;;43.00;16.17;99163.47;4369899;32;33177;-90
2022/07/01 13:09:31;;;;;;;2.33;1.23;;;;;;;42.93;17.37;99159.25;4380663;32;33155;-91
2022/07/01 13:12:07;;;;;;;4.00;1.48;;;;;;;42.94;16.83;99152.69;4375632;32;33969;-90